createdAt,value
2017-01-08T00:00:10.471Z,978.74
2017-01-08T00:01:10.463Z,978.75
2017-01-08T00:02:10.462Z,978.72
2017-01-08T00:03:10.455Z,978.73
2017-01-08T00:04:10.455Z,978.78
2017-01-08T00:05:10.450Z,978.79
2017-01-08T00:06:10.447Z,978.83
2017-01-08T00:07:10.439Z,978.82
2017-01-08T00:08:10.443Z,978.85
2017-01-08T00:09:10.435Z,978.84
2017-01-08T00:10:10.435Z,978.83
2017-01-08T00:11:10.431Z,978.84
2017-01-08T00:12:10.427Z,978.84
2017-01-08T00:13:10.423Z,978.82
2017-01-08T00:14:10.415Z,978.82
2017-01-08T00:15:10.416Z,978.78
2017-01-08T00:16:10.407Z,978.8
2017-01-08T00:17:10.407Z,978.74
2017-01-08T00:18:10.403Z,978.77
2017-01-08T00:19:10.399Z,978.75
2017-01-08T00:20:10.392Z,978.75
2017-01-08T00:21:10.391Z,978.78
2017-01-08T00:22:10.388Z,978.74
2017-01-08T00:23:10.387Z,978.75
2017-01-08T00:24:10.376Z,978.76
2017-01-08T00:25:10.380Z,978.71
2017-01-08T00:26:10.376Z,978.73
2017-01-08T00:27:10.372Z,978.77
2017-01-08T00:28:10.368Z,978.73
2017-01-08T00:29:10.364Z,978.76
2017-01-08T00:30:10.360Z,978.77
2017-01-08T00:31:10.356Z,978.79
2017-01-08T00:32:10.348Z,978.75
2017-01-08T00:33:10.348Z,978.73
2017-01-08T00:34:10.344Z,978.67
2017-01-08T00:35:10.340Z,978.65
2017-01-08T00:36:10.336Z,978.66
2017-01-08T00:37:10.332Z,978.64
2017-01-08T00:38:10.328Z,978.67
2017-01-08T00:39:10.325Z,978.64
2017-01-08T00:40:10.321Z,978.65
2017-01-08T00:41:10.317Z,978.67
2017-01-08T00:42:10.312Z,978.65
2017-01-08T00:43:10.309Z,978.67
2017-01-08T00:44:10.309Z,978.69
2017-01-08T00:45:10.305Z,978.68
2017-01-08T00:46:10.301Z,978.65
2017-01-08T00:47:10.297Z,978.63
2017-01-08T00:48:10.293Z,978.65
2017-01-08T00:49:10.289Z,978.63
2017-01-08T00:50:10.285Z,978.62
2017-01-08T00:51:10.283Z,978.58
2017-01-08T00:52:10.277Z,978.56
2017-01-08T00:53:10.273Z,978.51
2017-01-08T00:54:10.269Z,978.49
2017-01-08T00:55:10.266Z,978.49
2017-01-08T00:56:10.262Z,978.49
2017-01-08T00:57:10.255Z,978.47
2017-01-08T00:58:10.258Z,978.51
2017-01-08T00:59:10.250Z,978.48
2017-01-08T01:00:10.246Z,978.42
2017-01-08T01:01:10.246Z,978.42
2017-01-08T01:02:10.242Z,978.39
2017-01-08T01:03:10.234Z,978.35
2017-01-08T01:04:10.234Z,978.35
2017-01-08T01:05:10.227Z,978.38
2017-01-08T01:06:10.226Z,978.36
2017-01-08T01:07:10.218Z,978.39
2017-01-08T01:08:10.219Z,978.43
2017-01-08T01:09:10.210Z,978.45
2017-01-08T01:10:10.210Z,978.49
2017-01-08T01:11:10.207Z,978.51
2017-01-08T01:12:10.203Z,978.53
2017-01-08T01:13:10.195Z,978.54
2017-01-08T01:14:10.199Z,978.51
2017-01-08T01:15:10.191Z,978.48
2017-01-08T01:16:10.191Z,978.46
2017-01-08T01:17:10.183Z,978.38
2017-01-08T01:18:10.183Z,978.34
2017-01-08T01:19:10.175Z,978.32
2017-01-08T01:20:10.175Z,978.34
2017-01-08T01:21:10.171Z,978.3
2017-01-08T01:22:10.167Z,978.33
2017-01-08T01:23:10.160Z,978.3
2017-01-08T01:24:10.160Z,978.35
2017-01-08T01:25:10.152Z,978.32
2017-01-08T01:26:10.152Z,978.32
2017-01-08T01:27:10.144Z,978.3
2017-01-08T01:28:10.148Z,978.27
2017-01-08T01:29:10.136Z,978.29
2017-01-08T01:30:10.140Z,978.27
2017-01-08T01:31:10.132Z,978.28
2017-01-08T01:32:10.132Z,978.28
2017-01-08T01:33:10.128Z,978.3
2017-01-08T01:34:10.124Z,978.33
2017-01-08T01:35:10.117Z,978.29
2017-01-08T01:36:10.116Z,978.29
2017-01-08T01:37:10.112Z,978.29
2017-01-08T01:38:10.109Z,978.24
2017-01-08T01:39:10.101Z,978.3
2017-01-08T01:40:10.101Z,978.25
2017-01-08T01:41:10.097Z,978.26
2017-01-08T01:42:10.093Z,978.26
2017-01-08T01:43:10.089Z,978.27
2017-01-08T01:44:10.081Z,978.23
2017-01-08T01:45:10.081Z,978.23
2017-01-08T01:46:10.093Z,978.23
2017-01-08T01:47:10.077Z,978.29
2017-01-08T01:48:10.073Z,978.25
2017-01-08T01:49:10.069Z,978.26
2017-01-08T01:50:10.067Z,978.25
2017-01-08T01:51:10.061Z,978.23
2017-01-08T01:52:10.054Z,978.25
2017-01-08T01:53:10.054Z,978.21
2017-01-08T01:54:10.050Z,978.19
2017-01-08T01:55:10.046Z,978.18
2017-01-08T01:56:10.042Z,978.21
2017-01-08T01:57:10.038Z,978.19
2017-01-08T01:58:10.030Z,978.22
2017-01-08T01:59:10.030Z,978.2
2017-01-08T02:00:10.023Z,978.2
2017-01-08T02:01:10.026Z,978.17
2017-01-08T02:02:10.018Z,978.18
2017-01-08T02:03:10.018Z,978.14
2017-01-08T02:04:10.011Z,978.19
2017-01-08T02:05:10.011Z,978.14
2017-01-08T02:06:10.003Z,978.1
2017-01-08T02:07:10.004Z,978.06
2017-01-08T02:08:09.995Z,978.07
2017-01-08T02:09:09.995Z,978.09
2017-01-08T02:10:09.988Z,978.08
2017-01-08T02:11:09.987Z,978.05
2017-01-08T02:12:09.983Z,978.05
2017-01-08T02:13:09.979Z,978.08
2017-01-08T02:14:09.972Z,978.04
2017-01-08T02:15:09.971Z,978.09
2017-01-08T02:16:09.968Z,978.1
2017-01-08T02:17:09.964Z,978.13
2017-01-08T02:18:09.956Z,978.14
2017-01-08T02:19:09.955Z,978.16
2017-01-08T02:20:09.952Z,978.14
2017-01-08T02:21:09.952Z,978.09
2017-01-08T02:22:09.944Z,978.11
2017-01-08T02:23:09.944Z,978.12
2017-01-08T02:24:09.936Z,978.07
2017-01-08T02:25:09.936Z,978.12
2017-01-08T02:26:09.928Z,978.11
2017-01-08T02:27:09.928Z,978.1
2017-01-08T02:28:09.921Z,978.09
2017-01-08T02:29:09.920Z,978.11
2017-01-08T02:30:09.913Z,978.12
2017-01-08T02:31:09.912Z,978.11
2017-01-08T02:32:09.909Z,978.08
2017-01-08T02:33:09.905Z,978.14
2017-01-08T02:34:09.896Z,978.11
2017-01-08T02:35:09.896Z,978.08
2017-01-08T02:36:09.888Z,978.09
2017-01-08T02:37:09.892Z,978.1
2017-01-08T02:38:09.888Z,978.1
2017-01-08T02:39:09.884Z,978.15
2017-01-08T02:40:09.876Z,978.16
2017-01-08T02:41:09.876Z,978.14
2017-01-08T02:42:09.868Z,978.15
2017-01-08T02:43:09.867Z,978.14
2017-01-08T02:44:09.860Z,978.11
2017-01-08T02:45:09.860Z,978.07
2017-01-08T02:46:09.853Z,978.07
2017-01-08T02:47:09.852Z,978.06
2017-01-08T02:48:09.847Z,978.06
2017-01-08T02:49:09.844Z,978.04
2017-01-08T02:50:09.835Z,978.07
2017-01-08T02:51:09.837Z,978.1
2017-01-08T02:52:09.827Z,978.07
2017-01-08T02:53:09.827Z,978.09
2017-01-08T02:54:09.827Z,978.16
2017-01-08T02:55:09.822Z,978.14
2017-01-08T02:56:09.815Z,978.18
2017-01-08T02:57:09.815Z,978.16
2017-01-08T02:58:09.807Z,978.14
2017-01-08T02:59:09.807Z,978.13
2017-01-08T03:00:09.803Z,978.15
2017-01-08T03:01:09.798Z,978.12
2017-01-08T03:02:09.794Z,978.09
2017-01-08T03:03:09.790Z,978.09
2017-01-08T03:04:09.786Z,978.09
2017-01-08T03:05:09.782Z,978.08
2017-01-08T03:06:09.778Z,978.05
2017-01-08T03:07:09.770Z,978.09
2017-01-08T03:08:09.769Z,978.09
2017-01-08T03:09:09.762Z,978.08
2017-01-08T03:10:09.765Z,978.1
2017-01-08T03:11:09.761Z,978.06
2017-01-08T03:12:09.757Z,978.12
2017-01-08T03:13:09.748Z,978.09
2017-01-08T03:14:09.748Z,978.1
2017-01-08T03:15:09.740Z,978.14
2017-01-08T03:16:09.740Z,978.12
2017-01-08T03:17:09.731Z,978.11
2017-01-08T03:18:09.731Z,978.11
2017-01-08T03:19:09.723Z,978.09
2017-01-08T03:20:09.722Z,978.08
2017-01-08T03:21:09.718Z,978.15
2017-01-08T03:22:09.714Z,978.15
2017-01-08T03:23:09.707Z,978.12
2017-01-08T03:24:09.706Z,978.1
2017-01-08T03:25:09.702Z,978.09
2017-01-08T03:26:09.698Z,978.07
2017-01-08T03:27:09.694Z,978.08
2017-01-08T03:28:09.689Z,978.06
2017-01-08T03:29:09.686Z,978.03
2017-01-08T03:30:09.678Z,978.04
2017-01-08T03:31:09.681Z,978.03
2017-01-08T03:32:09.677Z,978.05
2017-01-08T03:33:09.669Z,978.02
2017-01-08T03:34:09.669Z,978
2017-01-08T03:35:09.665Z,978.02
2017-01-08T03:36:09.657Z,978.03
2017-01-08T03:37:09.657Z,978.03
2017-01-08T03:38:09.649Z,978.03
2017-01-08T03:39:09.649Z,978.03
2017-01-08T03:40:09.641Z,978.05
2017-01-08T03:41:09.641Z,978.04
2017-01-08T03:42:09.633Z,978.03
2017-01-08T03:43:09.633Z,978.01
2017-01-08T03:44:09.629Z,978.04
2017-01-08T03:45:09.625Z,978.08
2017-01-08T03:46:09.617Z,978.06
2017-01-08T03:47:09.618Z,978.07
2017-01-08T03:48:09.613Z,978.01
2017-01-08T03:49:09.609Z,977.98
2017-01-08T03:50:09.609Z,977.97
2017-01-08T03:51:09.607Z,977.94
2017-01-08T03:52:09.597Z,977.94
2017-01-08T03:53:09.597Z,977.94
2017-01-08T03:54:09.593Z,977.93
2017-01-08T03:55:09.585Z,977.9
2017-01-08T03:56:09.585Z,977.9
2017-01-08T03:57:09.581Z,977.89
2017-01-08T03:58:09.577Z,977.92
2017-01-08T03:59:09.573Z,977.86
2017-01-08T04:00:09.569Z,977.85
2017-01-08T04:01:09.565Z,977.86
2017-01-08T04:02:09.561Z,977.83
2017-01-08T04:03:09.553Z,977.85
2017-01-08T04:04:09.553Z,977.81
2017-01-08T04:05:09.545Z,977.85
2017-01-08T04:06:09.549Z,977.85
2017-01-08T04:07:09.541Z,977.85
2017-01-08T04:08:09.537Z,977.87
2017-01-08T04:09:09.537Z,977.84
2017-01-08T04:10:09.528Z,977.81
2017-01-08T04:11:09.529Z,977.79
2017-01-08T04:12:09.524Z,977.8
2017-01-08T04:13:09.521Z,977.81
2017-01-08T04:14:09.517Z,977.79
2017-01-08T04:15:09.512Z,977.82
2017-01-08T04:16:09.505Z,977.87
2017-01-08T04:17:09.505Z,977.83
2017-01-08T04:18:09.497Z,977.89
2017-01-08T04:19:09.499Z,977.88
2017-01-08T04:20:09.489Z,977.91
2017-01-08T04:21:09.490Z,977.91
2017-01-08T04:22:09.481Z,977.9
2017-01-08T04:23:09.482Z,977.87
2017-01-08T04:24:09.474Z,977.89
2017-01-08T04:25:09.474Z,977.85
2017-01-08T04:26:09.470Z,977.84
2017-01-08T04:27:09.466Z,977.84
2017-01-08T04:28:09.462Z,977.79
2017-01-08T04:29:09.462Z,977.83
2017-01-08T04:30:09.458Z,977.82
2017-01-08T04:31:09.454Z,977.85
2017-01-08T04:32:09.451Z,977.86
2017-01-08T04:33:09.447Z,977.86
2017-01-08T04:34:09.443Z,977.86
2017-01-08T04:35:09.439Z,977.86
2017-01-08T04:36:09.435Z,977.88
2017-01-08T04:37:09.427Z,977.88
2017-01-08T04:38:09.427Z,977.88
2017-01-08T04:39:09.420Z,977.9
2017-01-08T04:40:09.420Z,977.96
2017-01-08T04:41:09.415Z,977.93
2017-01-08T04:42:09.412Z,977.93
2017-01-08T04:43:09.408Z,977.97
2017-01-08T04:44:09.656Z,977.99
2017-01-08T04:45:09.404Z,977.98
2017-01-08T04:46:09.400Z,978
2017-01-08T04:47:09.396Z,978.02
2017-01-08T04:48:09.392Z,978.02
2017-01-08T04:49:09.388Z,977.98
2017-01-08T04:50:09.384Z,978.01
2017-01-08T04:51:09.381Z,977.98
2017-01-08T04:52:09.377Z,977.99
2017-01-08T04:53:09.373Z,977.98
2017-01-08T04:54:09.365Z,977.98
2017-01-08T04:55:09.365Z,978.02
2017-01-08T04:56:09.357Z,978.03
2017-01-08T04:57:09.357Z,978.02
2017-01-08T04:58:09.350Z,978
2017-01-08T04:59:09.349Z,978
2017-01-08T05:00:09.342Z,977.99
2017-01-08T05:01:09.342Z,978
2017-01-08T05:02:09.334Z,978.01
2017-01-08T05:03:09.338Z,978
2017-01-08T05:04:09.334Z,978.01
2017-01-08T05:05:09.330Z,977.97
2017-01-08T05:06:09.322Z,977.98
2017-01-08T05:07:09.322Z,977.97
2017-01-08T05:08:09.315Z,977.93
2017-01-08T05:09:09.315Z,977.93
2017-01-08T05:10:09.311Z,977.93
2017-01-08T05:11:09.307Z,977.89
2017-01-08T05:12:09.299Z,977.88
2017-01-08T05:13:09.299Z,977.89
2017-01-08T05:14:09.295Z,977.89
2017-01-08T05:15:09.291Z,977.92
2017-01-08T05:16:09.288Z,977.88
2017-01-08T05:17:09.283Z,977.86
2017-01-08T05:18:09.280Z,977.86
2017-01-08T05:19:09.272Z,977.89
2017-01-08T05:20:09.272Z,977.88
2017-01-08T05:21:09.268Z,977.83
2017-01-08T05:22:09.264Z,977.85
2017-01-08T05:23:09.256Z,977.87
2017-01-08T05:24:09.260Z,977.92
2017-01-08T05:25:09.252Z,977.91
2017-01-08T05:26:09.252Z,977.91
2017-01-08T05:27:09.248Z,977.9
2017-01-08T05:28:09.244Z,977.94
2017-01-08T05:29:09.237Z,977.93
2017-01-08T05:30:09.236Z,977.89
2017-01-08T05:31:09.228Z,977.9
2017-01-08T05:32:09.229Z,977.93
2017-01-08T05:33:09.220Z,977.89
2017-01-08T05:34:09.220Z,977.92
2017-01-08T05:35:09.216Z,977.93
2017-01-08T05:36:09.212Z,977.98
2017-01-08T05:37:09.204Z,977.98
2017-01-08T05:38:09.204Z,978.04
2017-01-08T05:39:09.200Z,978.02
2017-01-08T05:40:09.196Z,978.04
2017-01-08T05:41:09.193Z,978.04
2017-01-08T05:42:09.186Z,978.02
2017-01-08T05:43:09.189Z,977.99
2017-01-08T05:44:09.184Z,977.99
2017-01-08T05:45:09.180Z,977.97
2017-01-08T05:46:09.177Z,977.97
2017-01-08T05:47:09.173Z,977.93
2017-01-08T05:48:09.165Z,977.95
2017-01-08T05:49:09.165Z,977.94
2017-01-08T05:50:09.157Z,977.97
2017-01-08T05:51:09.157Z,977.94
2017-01-08T05:52:09.149Z,977.97
2017-01-08T05:53:09.148Z,977.99
2017-01-08T05:54:09.141Z,977.98
2017-01-08T05:55:09.140Z,977.93
2017-01-08T05:56:09.137Z,977.93
2017-01-08T05:57:09.133Z,977.89
2017-01-08T05:58:09.129Z,977.87
2017-01-08T05:59:09.125Z,977.88
2017-01-08T06:00:09.121Z,977.87
2017-01-08T06:01:09.117Z,977.91
2017-01-08T06:02:09.117Z,977.88
2017-01-08T06:03:09.110Z,977.88
2017-01-08T06:04:09.109Z,977.83
2017-01-08T06:05:09.106Z,977.84
2017-01-08T06:06:09.102Z,977.8
2017-01-08T06:07:09.098Z,977.81
2017-01-08T06:08:09.094Z,977.76
2017-01-08T06:09:09.090Z,977.81
2017-01-08T06:10:09.086Z,977.82
2017-01-08T06:11:09.082Z,977.84
2017-01-08T06:12:09.079Z,977.86
2017-01-08T06:13:09.071Z,977.86
2017-01-08T06:14:09.071Z,977.88
2017-01-08T06:15:09.067Z,977.83
2017-01-08T06:16:09.060Z,977.81
2017-01-08T06:17:09.064Z,977.87
2017-01-08T06:18:09.052Z,977.87
2017-01-08T06:19:09.056Z,977.92
2017-01-08T06:20:09.048Z,977.93
2017-01-08T06:21:09.048Z,977.97
2017-01-08T06:22:09.040Z,978.01
2017-01-08T06:23:09.040Z,978.02
2017-01-08T06:24:09.033Z,978.03
2017-01-08T06:25:09.033Z,978.11
2017-01-08T06:26:09.028Z,978.11
2017-01-08T06:27:09.025Z,978.13
2017-01-08T06:28:09.021Z,978.13
2017-01-08T06:29:09.017Z,978.14
2017-01-08T06:30:09.014Z,978.15
2017-01-08T06:31:09.006Z,978.15
2017-01-08T06:32:09.005Z,978.12
2017-01-08T06:33:08.998Z,978.11
2017-01-08T06:34:08.997Z,978.1
2017-01-08T06:35:08.990Z,978.06
2017-01-08T06:36:08.990Z,978.03
2017-01-08T06:37:08.982Z,978.04
2017-01-08T06:38:08.982Z,978.03
2017-01-08T06:39:08.982Z,978.04
2017-01-08T06:40:08.975Z,978.06
2017-01-08T06:41:08.971Z,978.07
2017-01-08T06:42:08.971Z,978.08
2017-01-08T06:43:08.967Z,978.09
2017-01-08T06:44:08.960Z,978.06
2017-01-08T06:45:08.960Z,978.08
2017-01-08T06:46:08.952Z,978.06
2017-01-08T06:47:08.952Z,978.06
2017-01-08T06:48:08.944Z,978.07
2017-01-08T06:49:08.944Z,978.04
2017-01-08T06:50:08.937Z,978.05
2017-01-08T06:51:08.937Z,978.04
2017-01-08T06:52:08.933Z,978.11
2017-01-08T06:53:08.925Z,978.12
2017-01-08T06:54:08.925Z,978.12
2017-01-08T06:55:08.922Z,978.12
2017-01-08T06:56:08.917Z,978.1
2017-01-08T06:57:08.910Z,978.08
2017-01-08T06:58:08.909Z,978.09
2017-01-08T06:59:08.902Z,978.08
2017-01-08T07:00:08.906Z,978.11
2017-01-08T07:01:08.898Z,978.11
2017-01-08T07:02:08.898Z,978.11
2017-01-08T07:03:08.895Z,978.13
2017-01-08T07:04:08.891Z,978.13
2017-01-08T07:05:08.887Z,978.16
2017-01-08T07:06:08.883Z,978.17
2017-01-08T07:07:08.879Z,978.17
2017-01-08T07:08:08.875Z,978.22
2017-01-08T07:09:08.871Z,978.32
2017-01-08T07:10:08.864Z,978.35
2017-01-08T07:11:08.864Z,978.33
2017-01-08T07:12:08.860Z,978.4
2017-01-08T07:13:08.856Z,978.37
2017-01-08T07:14:08.848Z,978.42
2017-01-08T07:15:08.847Z,978.45
2017-01-08T07:16:08.840Z,978.49
2017-01-08T07:17:08.840Z,978.49
2017-01-08T07:18:08.837Z,978.51
2017-01-08T07:19:08.831Z,978.52
2017-01-08T07:20:08.828Z,978.53
2017-01-08T07:21:08.823Z,978.51
2017-01-08T07:22:08.823Z,978.52
2017-01-08T07:23:08.819Z,978.53
2017-01-08T07:24:08.812Z,978.52
2017-01-08T07:25:08.811Z,978.56
2017-01-08T07:26:08.808Z,978.5
2017-01-08T07:27:08.803Z,978.52
2017-01-08T07:28:08.799Z,978.51
2017-01-08T07:29:08.795Z,978.53
2017-01-08T07:30:08.791Z,978.52
2017-01-08T07:31:08.787Z,978.56
2017-01-08T07:32:08.784Z,978.58
2017-01-08T07:33:08.776Z,978.57
2017-01-08T07:34:08.775Z,978.57
2017-01-08T07:35:08.768Z,978.59
2017-01-08T07:36:08.768Z,978.64
2017-01-08T07:37:08.760Z,978.58
2017-01-08T07:38:08.764Z,978.59
2017-01-08T07:39:08.760Z,978.64
2017-01-08T07:40:08.756Z,978.68
2017-01-08T07:41:08.752Z,978.71
2017-01-08T07:42:08.748Z,978.69
2017-01-08T07:43:08.744Z,978.72
2017-01-08T07:44:08.741Z,978.72
2017-01-08T07:45:08.736Z,978.7
2017-01-08T07:46:08.728Z,978.71
2017-01-08T07:47:08.728Z,978.74
2017-01-08T07:48:08.721Z,978.76
2017-01-08T07:49:08.720Z,978.77
2017-01-08T07:50:08.713Z,978.77
2017-01-08T07:51:08.717Z,978.74
2017-01-08T07:52:08.712Z,978.74
2017-01-08T07:53:08.705Z,978.69
2017-01-08T07:54:08.705Z,978.69
2017-01-08T07:55:08.696Z,978.72
2017-01-08T07:56:08.696Z,978.73
2017-01-08T07:57:08.689Z,978.77
2017-01-08T07:58:08.689Z,978.78
2017-01-08T07:59:08.681Z,978.79
2017-01-08T08:00:08.681Z,978.78
2017-01-08T08:01:08.673Z,978.79
2017-01-08T08:02:08.669Z,978.77
2017-01-08T08:03:08.673Z,978.77
2017-01-08T08:04:08.661Z,978.77
2017-01-08T08:05:08.665Z,978.78
2017-01-08T08:06:08.661Z,978.79
2017-01-08T08:07:08.653Z,978.83
2017-01-08T08:08:08.653Z,978.83
2017-01-08T08:09:08.646Z,978.84
2017-01-08T08:10:08.645Z,978.82
2017-01-08T08:11:08.640Z,978.81
2017-01-08T08:12:08.637Z,978.78
2017-01-08T08:13:08.632Z,978.76
2017-01-08T08:14:08.624Z,978.8
2017-01-08T08:15:08.624Z,978.82
2017-01-08T08:16:08.624Z,978.88
2017-01-08T08:17:08.620Z,978.94
2017-01-08T08:18:08.616Z,978.92
2017-01-08T08:19:08.611Z,978.89
2017-01-08T08:20:08.604Z,978.91
2017-01-08T08:21:08.603Z,978.88
2017-01-08T08:22:08.599Z,978.85
2017-01-08T08:23:08.591Z,978.84
2017-01-08T08:24:08.591Z,978.87
2017-01-08T08:25:08.588Z,978.84
2017-01-08T08:26:08.579Z,978.89
2017-01-08T08:27:08.583Z,978.84
2017-01-08T08:28:08.579Z,978.88
2017-01-08T08:29:08.574Z,978.85
2017-01-08T08:30:08.566Z,978.83
2017-01-08T08:31:08.563Z,978.81
2017-01-08T08:32:08.562Z,978.81
2017-01-08T08:33:08.558Z,978.81
2017-01-08T08:34:08.554Z,978.77
2017-01-08T08:35:08.554Z,978.8
2017-01-08T08:36:08.550Z,978.76
2017-01-08T08:37:08.543Z,978.8
2017-01-08T08:38:08.541Z,978.77
2017-01-08T08:39:08.538Z,978.79
2017-01-08T08:40:08.534Z,978.83
2017-01-08T08:41:08.530Z,978.88
2017-01-08T08:42:08.526Z,978.85
2017-01-08T08:43:08.522Z,978.87
2017-01-08T08:44:08.522Z,978.92
2017-01-08T08:45:08.518Z,978.98
2017-01-08T08:46:08.514Z,979.02
2017-01-08T08:47:08.510Z,979.04
2017-01-08T08:48:08.502Z,979.04
2017-01-08T08:49:08.498Z,979.08
2017-01-08T08:50:08.502Z,979.08
2017-01-08T08:51:08.500Z,979.07
2017-01-08T08:52:08.494Z,979.08
2017-01-08T08:53:08.490Z,979.04
2017-01-08T08:54:08.482Z,979
2017-01-08T08:55:08.478Z,978.98
2017-01-08T08:56:08.474Z,979.02
2017-01-08T08:57:08.474Z,979.03
2017-01-08T08:58:08.474Z,979
2017-01-08T08:59:08.470Z,979
2017-01-08T09:00:08.466Z,979.02
2017-01-08T09:01:08.462Z,979.01
2017-01-08T09:02:08.462Z,979.05
2017-01-08T09:03:08.458Z,979.02
2017-01-08T09:04:08.454Z,979.05
2017-01-08T09:05:08.450Z,979.04
2017-01-08T09:06:08.446Z,979.03
2017-01-08T09:07:08.442Z,979
2017-01-08T09:08:08.434Z,979.02
2017-01-08T09:09:08.438Z,979.03
2017-01-08T09:10:08.434Z,979.05
2017-01-08T09:11:08.430Z,979.03
2017-01-08T09:12:08.422Z,979.07
2017-01-08T09:13:08.418Z,979.08
2017-01-08T09:14:08.418Z,979.1
2017-01-08T09:15:08.414Z,979.12
2017-01-08T09:16:08.414Z,979.07
2017-01-08T09:17:08.410Z,979.08
2017-01-08T09:18:08.406Z,979.1
2017-01-08T09:19:08.406Z,979.12
2017-01-08T09:20:08.402Z,979.09
2017-01-08T09:21:08.398Z,979.1
2017-01-08T09:22:08.395Z,979.09
2017-01-08T09:23:08.394Z,979.11
2017-01-08T09:24:08.390Z,979.1
2017-01-08T09:25:08.387Z,979.06
2017-01-08T09:26:08.379Z,979.07
2017-01-08T09:27:08.375Z,979.11
2017-01-08T09:28:08.371Z,979.06
2017-01-08T09:29:08.375Z,979.08
2017-01-08T09:30:08.371Z,979.05
2017-01-08T09:31:08.363Z,979.03
2017-01-08T09:32:08.359Z,979.04
2017-01-08T09:33:08.363Z,979.15
2017-01-08T09:34:08.359Z,979.15
2017-01-08T09:35:08.355Z,979.18
2017-01-08T09:36:08.352Z,979.14
2017-01-08T09:37:08.348Z,979.12
2017-01-08T09:38:08.347Z,979.13
2017-01-08T09:39:08.344Z,979.1
2017-01-08T09:40:08.340Z,979.1
2017-01-08T09:41:08.336Z,979.12
2017-01-08T09:42:08.336Z,979.14
2017-01-08T09:43:08.332Z,979.16
2017-01-08T09:44:08.328Z,979.13
2017-01-08T09:45:08.328Z,979.16
2017-01-08T09:46:08.324Z,979.17
2017-01-08T09:47:08.316Z,979.19
2017-01-08T09:48:08.316Z,979.15
2017-01-08T09:49:08.317Z,979.14
2017-01-08T09:50:08.309Z,979.13
2017-01-08T09:51:08.309Z,979.17
2017-01-08T09:52:08.309Z,979.23
2017-01-08T09:53:08.301Z,979.23
2017-01-08T09:54:08.301Z,979.28
2017-01-08T09:55:08.545Z,979.26
2017-01-08T09:56:08.293Z,979.26
2017-01-08T09:57:08.297Z,979.23
2017-01-08T09:58:08.289Z,979.22
2017-01-08T09:59:08.281Z,979.25
2017-01-08T10:00:08.285Z,979.23
2017-01-08T10:01:08.278Z,979.26
2017-01-08T10:02:08.277Z,979.27
2017-01-08T10:03:08.278Z,979.29
2017-01-08T10:04:08.274Z,979.25
2017-01-08T10:05:08.270Z,979.28
2017-01-08T10:06:08.262Z,979.3
2017-01-08T10:07:08.265Z,979.32
2017-01-08T10:08:08.258Z,979.32
2017-01-08T10:09:08.258Z,979.29
2017-01-08T10:10:08.258Z,979.31
2017-01-08T10:11:08.253Z,979.3
2017-01-08T10:12:08.249Z,979.35
2017-01-08T10:13:08.249Z,979.35
2017-01-08T10:14:08.241Z,979.37
2017-01-08T10:15:08.242Z,979.36
2017-01-08T10:16:08.237Z,979.33
2017-01-08T10:17:08.237Z,979.32
2017-01-08T10:18:08.230Z,979.35
2017-01-08T10:19:08.230Z,979.36
2017-01-08T10:20:08.226Z,979.34
2017-01-08T10:21:08.228Z,979.33
2017-01-08T10:22:08.221Z,979.31
2017-01-08T10:23:08.221Z,979.32
2017-01-08T10:24:08.217Z,979.29
2017-01-08T10:25:08.209Z,979.28
2017-01-08T10:26:08.213Z,979.32
2017-01-08T10:27:08.205Z,979.29
2017-01-08T10:28:08.206Z,979.27
2017-01-08T10:29:08.205Z,979.28
2017-01-08T10:30:08.199Z,979.26
2017-01-08T10:31:08.198Z,979.28
2017-01-08T10:32:08.194Z,979.27
2017-01-08T10:33:08.194Z,979.28
2017-01-08T10:34:08.189Z,979.25
2017-01-08T10:35:08.186Z,979.2
2017-01-08T10:36:08.186Z,979.26
2017-01-08T10:37:08.186Z,979.26
2017-01-08T10:38:08.178Z,979.25
2017-01-08T10:39:08.178Z,979.2
2017-01-08T10:40:08.178Z,979.2
2017-01-08T10:41:08.174Z,979.24
2017-01-08T10:42:08.166Z,979.22
2017-01-08T10:43:08.170Z,979.2
2017-01-08T10:44:08.166Z,979.21
2017-01-08T10:45:08.162Z,979.2
2017-01-08T10:46:08.163Z,979.16
2017-01-08T10:47:08.158Z,979.09
2017-01-08T10:48:08.158Z,979.08
2017-01-08T10:49:08.154Z,979.08
2017-01-08T10:50:08.150Z,979.06
2017-01-08T10:51:08.146Z,979.07
2017-01-08T10:52:08.147Z,979.05
2017-01-08T10:53:08.142Z,979.01
2017-01-08T10:54:08.142Z,978.99
2017-01-08T10:55:08.143Z,979
2017-01-08T10:56:08.138Z,979.02
2017-01-08T10:57:08.135Z,979.06
2017-01-08T10:58:08.134Z,979.1
2017-01-08T10:59:08.130Z,979.07
2017-01-08T11:00:08.127Z,979.06
2017-01-08T11:01:08.127Z,979.05
2017-01-08T11:02:08.119Z,979.01
2017-01-08T11:03:08.123Z,979.01
2017-01-08T11:04:08.115Z,979.07
2017-01-08T11:05:08.119Z,979.06
2017-01-08T11:06:08.115Z,979.06
2017-01-08T11:07:08.111Z,979.08
2017-01-08T11:08:08.111Z,979.06
2017-01-08T11:09:08.108Z,979.01
2017-01-08T11:10:08.107Z,978.99
2017-01-08T11:11:08.104Z,978.95
2017-01-08T11:12:08.104Z,978.96
2017-01-08T11:13:08.099Z,978.93
2017-01-08T11:14:08.099Z,978.9
2017-01-08T11:15:08.096Z,978.88
2017-01-08T11:16:08.096Z,978.89
2017-01-08T11:17:08.093Z,978.91
2017-01-08T11:18:08.084Z,978.9
2017-01-08T11:19:08.088Z,978.91
2017-01-08T11:20:08.084Z,978.9
2017-01-08T11:21:08.085Z,978.93
2017-01-08T11:22:08.080Z,978.9
2017-01-08T11:23:08.080Z,978.91
2017-01-08T11:24:08.077Z,978.91
2017-01-08T11:25:08.072Z,978.88
2017-01-08T11:26:08.069Z,978.87
2017-01-08T11:27:08.073Z,978.91
2017-01-08T11:28:08.065Z,978.87
2017-01-08T11:29:08.065Z,978.85
2017-01-08T11:30:08.065Z,978.85
2017-01-08T11:31:08.066Z,978.82
2017-01-08T11:32:08.061Z,978.82
2017-01-08T11:33:08.058Z,978.79
2017-01-08T11:34:08.053Z,978.8
2017-01-08T11:35:08.053Z,978.86
2017-01-08T11:36:08.053Z,978.82
2017-01-08T11:37:08.049Z,978.84
2017-01-08T11:38:08.046Z,978.89
2017-01-08T11:39:08.041Z,978.88
2017-01-08T11:40:08.046Z,978.87
2017-01-08T11:41:08.043Z,978.86
2017-01-08T11:42:08.042Z,978.88
2017-01-08T11:43:08.038Z,978.83
2017-01-08T11:44:08.038Z,978.79
2017-01-08T11:45:08.034Z,978.77
2017-01-08T11:46:08.034Z,978.74
2017-01-08T11:47:08.026Z,978.76
2017-01-08T11:48:08.032Z,978.77
2017-01-08T11:49:08.026Z,978.74
2017-01-08T11:50:08.026Z,978.75
2017-01-08T11:51:08.020Z,978.71
2017-01-08T11:52:08.022Z,978.7
2017-01-08T11:53:08.024Z,978.66
2017-01-08T11:54:08.019Z,978.68
2017-01-08T11:55:08.011Z,978.63
2017-01-08T11:56:08.015Z,978.66
2017-01-08T11:57:08.011Z,978.62
2017-01-08T11:58:08.011Z,978.59
2017-01-08T11:59:08.003Z,978.58
2017-01-08T12:00:08.007Z,978.52
2017-01-08T12:01:08.003Z,978.48
2017-01-08T12:02:08.004Z,978.48
2017-01-08T12:03:07.996Z,978.45
2017-01-08T12:04:07.999Z,978.48
2017-01-08T12:05:07.996Z,978.47
2017-01-08T12:06:07.996Z,978.47
2017-01-08T12:07:07.988Z,978.42
2017-01-08T12:08:07.992Z,978.42
2017-01-08T12:09:07.988Z,978.41
2017-01-08T12:10:07.984Z,978.44
2017-01-08T12:11:07.984Z,978.43
2017-01-08T12:12:07.984Z,978.39
2017-01-08T12:13:07.980Z,978.39
2017-01-08T12:14:07.976Z,978.43
2017-01-08T12:15:07.976Z,978.42
2017-01-08T12:16:07.976Z,978.46
2017-01-08T12:17:07.973Z,978.42
2017-01-08T12:18:07.969Z,978.42
2017-01-08T12:19:07.968Z,978.45
2017-01-08T12:20:07.969Z,978.41
2017-01-08T12:21:07.965Z,978.39
2017-01-08T12:22:07.961Z,978.4
2017-01-08T12:23:07.957Z,978.43
2017-01-08T12:24:07.961Z,978.44
2017-01-08T12:25:07.957Z,978.4
2017-01-08T12:26:07.957Z,978.4
2017-01-08T12:27:07.950Z,978.41
2017-01-08T12:28:07.954Z,978.42
2017-01-08T12:29:07.949Z,978.42
2017-01-08T12:30:07.950Z,978.42
2017-01-08T12:31:07.946Z,978.42